CheckWX is a tool to help pilots better visualize weather data.  It is not intended as a substitute for an official pre-flight weather briefing.

22:45:23 UTC

KLEX METAR
Blue Grass Airport
Lexington, Kentucky, USA
Current

51 mins ago

KLEX 082154Z 08003KT 10SM SCT060 BKN075 24/16 A2968 RMK AO2 LTG DSNT S SLP043 T02440156
Observed
Apr-8 @ 21:54 UTC
Wind
  • 080° at 3 KTS
Visibility
Flight Rules
VFR
Cloud Levels
  • Scattered at 6,000' AGL
  • Broken at 7,500' AGL
Temperature
24°C / 75°F
Dewpoint
16°C / 61°F
Humidity
61%
Altimeter
29.68" Hg
Pressure
1005.12 hPa
Previous

1 hour ago

KLEX 082128Z VRB05KT 10SM VCTS SCT055 24/16 A2969 RMK AO2 LTG DSNT SE T02440161
Observed
Apr-8 @ 21:28 UTC
Wind
  • Variable at 5 KTS
Visibility
Flight Rules
VFR
Conditions
Area Thunderstorm
Cloud Levels
  • Scattered at 5,500' AGL
Temperature
24°C / 75°F
Dewpoint
16°C / 61°F
Humidity
61%
Altimeter
29.69" Hg
Pressure
1005.42 hPa
Previous

2 hours ago

KLEX 082054Z 04006KT 10SM FEW055 23/16 A2970 RMK AO2 LTG DSNT SE RAE05 TSE14 SLP049 P0000 60000 T02280161 58015
Observed
Apr-8 @ 20:54 UTC
Wind
  • 040° at 6 KTS
Visibility
Flight Rules
VFR
Cloud Levels
  • Few at 5,500' AGL
Temperature
23°C / 73°F
Dewpoint
16°C / 61°F
Humidity
65%
Altimeter
29.7" Hg
Pressure
1005.72 hPa
Current Rain
0.01"